Flinterbothnia — PBLG — position and weather

sailwx.info

Track history (hours):
 
Tides and Currents Weather Stations Pressure Air Temp Water Temp Dewpoint Dewpoint Depression Visibility Wind Speed Wind Dir Waves Ship Positions

Flinterbothnia

Last reported at 2016-Jul-23 12:34 UTC. Time now 2016-Jul-23 13:13 UTC.
Position N 53°19' E 007°02'.

Length 82 m; draft 3.7 m.

Type: Cargo ship. MMSI: 244741000.

Date/timePositionNaut miles runAvg speedWind from/ knotsBaromVisibWave heightAir tempDewpointWater temp
2016-Jul-23 12:34N 53°19' E 007°02'0 0.0
2016-Jul-23 11:33N 53°19' E 007°02'0 0.0
2016-Jul-23 10:33N 53°19' E 007°02'0 0.0
2016-Jul-23 09:34N 53°19' E 007°02'5 4.6
2016-Jul-23 08:33N 53°23' E 006°58'1211.8
2016-Jul-23 07:33N 53°32' E 006°44'10 9.9
2016-Jul-23 06:33N 53°37' E 006°30'15 7.6
2016-Jul-23 04:34N 53°36' E 006°04'6 6.0
2016-Jul-23 03:33N 53°36' E 005°54'6 6.0
2016-Jul-23 02:33N 53°35' E 005°44'6 6.3
2016-Jul-23 01:33N 53°34' E 005°33'7 6.5
2016-Jul-23 00:33N 53°32' E 005°23'7 7.2
2016-Jul-22 23:33N 53°30' E 005°12'8 8.0
2016-Jul-22 22:33N 53°27' E 004°59'24 7.9
2016-Jul-22 19:30N 53°13' E 004°26'87 7.2
2016-Jul-22 07:27N 52°14' E 002°42'24 8.4
2016-Jul-22 04:33N 51°57' E 002°14'9 9.3
2016-Jul-22 03:33N 51°51' E 002°02'9 8.6
2016-Jul-22 02:33N 51°49' E 001°48'8 7.9
2016-Jul-22 01:33N 51°49' E 001°36'8 7.5
2016-Jul-22 00:33N 51°45' E 001°25'6 6.4
2016-Jul-21 23:33N 51°40' E 001°18'6 5.8
2016-Jul-21 22:33N 51°36' E 001°12'8 7.9
2016-Jul-21 21:33N 51°32' E 001°01'9 8.9
2016-Jul-21 20:33N 51°29' E 000°48'1110.7
2016-Jul-21 19:34N 51°30' E 000°30'7 6.7
2016-Jul-21 18:34N 51°27' E 000°21'0 0.3
2016-Jul-21 17:34N 51°27' E 000°21'0 0.0
2016-Jul-21 16:34N 51°27' E 000°21'0 0.0
2016-Jul-21 15:34N 51°27' E 000°21'0 0.0
2016-Jul-21 14:34N 51°27' E 000°21'0 0.0
2016-Jul-21 13:34N 51°27' E 000°21'0 0.0
2016-Jul-21 12:34N 51°27' E 000°21'0 0.0
2016-Jul-21 11:34N 51°27' E 000°21'0 0.0
2016-Jul-21 10:34N 51°27' E 000°21'0 0.0
2016-Jul-21 09:34N 51°27' E 000°21'0 0.0
2016-Jul-21 08:34N 51°27' E 000°21'0 0.0
2016-Jul-21 07:34N 51°27' E 000°21'0 0.0
2016-Jul-21 06:34N 51°27' E 000°21'0 0.0
2016-Jul-21 05:33N 51°27' E 000°21'0 0.0
2016-Jul-21 04:33N 51°27' E 000°21'0 0.0
2016-Jul-21 03:33N 51°27' E 000°21'0 0.0
2016-Jul-21 02:33N 51°27' E 000°21'0 0.0
2016-Jul-21 01:34N 51°27' E 000°21'0 0.0
2016-Jul-21 00:33N 51°27' E 000°21'0 0.0
2016-Jul-20 23:33N 51°27' E 000°21'0 0.0
2016-Jul-20 22:33N 51°27' E 000°21'0 0.0
2016-Jul-20 21:34N 51°27' E 000°21'0 0.0
2016-Jul-20 20:34N 51°27' E 000°21'0 0.0
2016-Jul-20 19:34N 51°27' E 000°21'0 0.0
2016-Jul-20 18:34N 51°27' E 000°21'0 0.0
2016-Jul-20 17:34N 51°27' E 000°21'0 0.0
2016-Jul-20 16:34N 51°27' E 000°21'0 0.0
2016-Jul-20 15:34N 51°27' E 000°21'0 0.0
2016-Jul-20 14:34N 51°27' E 000°21'0 0.0
2016-Jul-20 13:34N 51°27' E 000°21'0 0.0
2016-Jul-20 12:34N 51°27' E 000°21'0 0.0
2016-Jul-20 11:34N 51°27' E 000°21'0 0.0
2016-Jul-20 10:34N 51°27' E 000°21'0 0.0
2016-Jul-20 09:34N 51°27' E 000°21'0 0.1
2016-Jul-20 08:34N 51°27' E 000°21'2 2.1
2016-Jul-20 07:34N 51°27' E 000°24'7 6.6
2016-Jul-20 06:34N 51°30' E 000°33'9 8.7
2016-Jul-20 05:33N 51°30' E 000°47'8 7.4
2016-Jul-20 04:32N 51°31' E 000°59'0 0.0
2016-Jul-20 03:32N 51°31' E 000°60'0 0.0
2016-Jul-20 02:32N 51°31' E 000°60'0 0.1
2016-Jul-20 01:32N 51°31' E 000°59'0 0.1
2016-Jul-20 00:32N 51°31' E 000°59'0 0.0
2016-Jul-19 23:32N 51°31' E 000°59'0 0.0
2016-Jul-19 22:29N 51°31' E 000°59'0 0.0
2016-Jul-19 21:32N 51°31' E 000°59'0 0.0
2016-Jul-19 20:32N 51°31' E 000°59'0 0.0
2016-Jul-19 19:32N 51°31' E 000°59'0 0.1
2016-Jul-19 18:32N 51°31' E 000°60'0 0.0
2016-Jul-19 17:32N 51°31' E 000°60'4 3.7
2016-Jul-19 16:33N 51°33' E 001°04'9 8.6
2016-Jul-19 15:33N 51°38' E 001°15'8 8.3
2016-Jul-19 14:34N 51°44' E 001°24'8 8.0
2016-Jul-19 13:34N 51°49' E 001°34'9 8.9
2016-Jul-19 12:33N 51°50' E 001°49'9 9.4
2016-Jul-19 11:33N 51°53' E 002°03'10 9.7
2016-Jul-19 10:34N 51°51' E 002°19'1010.0
2016-Jul-19 09:34N 51°45' E 002°31'10 9.6
2016-Jul-19 08:34N 51°45' E 002°47'1211.0
2016-Jul-19 07:29N 51°47' E 003°06'12 3.9
2016-Jul-19 04:23N 51°49' E 003°25'0 0.0
2016-Jul-19 03:23N 51°49' E 003°25'0 0.0
2016-Jul-19 02:29N 51°49' E 003°25'0 0.0
2016-Jul-19 01:32N 51°49' E 003°25'0 0.0
2016-Jul-19 00:29N 51°49' E 003°25'0 0.0
2016-Jul-18 23:29N 51°49' E 003°25'0 0.1
2016-Jul-18 22:29N 51°49' E 003°25'0 0.0
2016-Jul-18 21:19N 51°49' E 003°25'0 0.0
2016-Jul-18 20:07N 51°49' E 003°25'0 0.0
2016-Jul-18 18:19N 51°49' E 003°25'0 0.0
2016-Jul-18 17:31N 51°49' E 003°25'0 0.1
2016-Jul-18 16:28N 51°49' E 003°25'0 0.0
2016-Jul-18 15:25N 51°49' E 003°25'0 0.0
2016-Jul-18 14:28N 51°49' E 003°25'0 0.0
2016-Jul-18 13:31N 51°49' E 003°25'0 0.0
2016-Jul-18 12:31N 51°49' E 003°25'0 0.0
2016-Jul-18 11:22N 51°49' E 003°25'0 0.1
2016-Jul-18 10:28N 51°49' E 003°25'0 0.0
2016-Jul-18 09:25N 51°49' E 003°25'0 0.0
2016-Jul-18 08:31N 51°49' E 003°25'0 0.0
2016-Jul-18 07:31N 51°49' E 003°25'0 0.0
2016-Jul-18 06:19N 51°49' E 003°25'0 0.0
2016-Jul-18 04:28N 51°49' E 003°25'0 0.0
2016-Jul-18 01:31N 51°49' E 003°25'0 0.0
2016-Jul-17 22:25N 51°49' E 003°25'0 0.1
2016-Jul-17 20:31N 51°49' E 003°25'0 0.0
2016-Jul-17 18:28N 51°49' E 003°25'0 0.0
2016-Jul-16 21:18N 51°49' E 003°25'0 0.0
2016-Jul-16 20:30N 51°49' E 003°25'0 0.1
2016-Jul-16 19:33N 51°49' E 003°25'0 0.0
2016-Jul-16 18:06N 51°49' E 003°25'0 0.0
2016-Jul-16 17:09N 51°49' E 003°25'0 0.0
2016-Jul-16 16:30N 51°49' E 003°25'0 0.1
2016-Jul-16 15:27N 51°49' E 003°25'0 0.0
2016-Jul-16 13:30N 51°49' E 003°25'0 0.0
2016-Jul-16 06:30N 51°49' E 003°25'0 0.0
2016-Jul-15 18:23N 51°49' E 003°25'0 0.0
2016-Jul-15 17:23N 51°49' E 003°25'0 0.0
2016-Jul-15 16:08N 51°49' E 003°25'0 0.0
2016-Jul-15 11:14N 51°49' E 003°25'0 0.0
2016-Jul-15 10:29N 51°49' E 003°25'0 0.0
2016-Jul-15 09:26N 51°49' E 003°25'0 0.0
2016-Jul-15 08:32N 51°49' E 003°25'0 0.1
2016-Jul-15 07:32N 51°49' E 003°25'0 0.1
2016-Jul-15 06:08N 51°49' E 003°25'0 0.0
2016-Jul-15 05:29N 51°49' E 003°25'0 0.0
2016-Jul-15 03:23N 51°49' E 003°25'0 0.0
2016-Jul-15 00:14N 51°49' E 003°25'0 0.0
2016-Jul-14 23:23N 51°49' E 003°25'0 0.0
2016-Jul-14 22:23N 51°49' E 003°25'0 0.0
2016-Jul-14 21:29N 51°49' E 003°25'  
Track history (hours):
 
Tides and Currents Weather Stations Pressure Air Temp Water Temp Dewpoint Dewpoint Depression Visibility Wind Speed Wind Dir Waves Ship Positions

Flinterbothnia

Last reported at 2016-Jul-23 12:34 UTC. Time now 2016-Jul-23 13:13 UTC.
Position N 53°19' E 007°02'.

Length 82 m; draft 3.7 m.

Type: Cargo ship. MMSI: 244741000.

Date/timePositionNaut miles runAvg speedWind from/ knotsBaromVisibWave heightAir tempDewpointWater temp
2016-Jul-23 12:34N 53°19' E 007°02'0 0.0
2016-Jul-23 11:33N 53°19' E 007°02'0 0.0
2016-Jul-23 10:33N 53°19' E 007°02'0 0.0
2016-Jul-23 09:34N 53°19' E 007°02'5 4.6
2016-Jul-23 08:33N 53°23' E 006°58'1211.8
2016-Jul-23 07:33N 53°32' E 006°44'10 9.9
2016-Jul-23 06:33N 53°37' E 006°30'15 7.6
2016-Jul-23 04:34N 53°36' E 006°04'6 6.0
2016-Jul-23 03:33N 53°36' E 005°54'6 6.0
2016-Jul-23 02:33N 53°35' E 005°44'6 6.3
2016-Jul-23 01:33N 53°34' E 005°33'7 6.5
2016-Jul-23 00:33N 53°32' E 005°23'7 7.2
2016-Jul-22 23:33N 53°30' E 005°12'8 8.0
2016-Jul-22 22:33N 53°27' E 004°59'24 7.9
2016-Jul-22 19:30N 53°13' E 004°26'87 7.2
2016-Jul-22 07:27N 52°14' E 002°42'24 8.4
2016-Jul-22 04:33N 51°57' E 002°14'9 9.3
2016-Jul-22 03:33N 51°51' E 002°02'9 8.6
2016-Jul-22 02:33N 51°49' E 001°48'8 7.9
2016-Jul-22 01:33N 51°49' E 001°36'8 7.5
2016-Jul-22 00:33N 51°45' E 001°25'6 6.4
2016-Jul-21 23:33N 51°40' E 001°18'6 5.8
2016-Jul-21 22:33N 51°36' E 001°12'8 7.9
2016-Jul-21 21:33N 51°32' E 001°01'9 8.9
2016-Jul-21 20:33N 51°29' E 000°48'1110.7
2016-Jul-21 19:34N 51°30' E 000°30'7 6.7
2016-Jul-21 18:34N 51°27' E 000°21'0 0.3
2016-Jul-21 17:34N 51°27' E 000°21'0 0.0
2016-Jul-21 16:34N 51°27' E 000°21'0 0.0
2016-Jul-21 15:34N 51°27' E 000°21'0 0.0
2016-Jul-21 14:34N 51°27' E 000°21'0 0.0
2016-Jul-21 13:34N 51°27' E 000°21'0 0.0
2016-Jul-21 12:34N 51°27' E 000°21'0 0.0
2016-Jul-21 11:34N 51°27' E 000°21'0 0.0
2016-Jul-21 10:34N 51°27' E 000°21'0 0.0
2016-Jul-21 09:34N 51°27' E 000°21'0 0.0
2016-Jul-21 08:34N 51°27' E 000°21'0 0.0
2016-Jul-21 07:34N 51°27' E 000°21'0 0.0
2016-Jul-21 06:34N 51°27' E 000°21'0 0.0
2016-Jul-21 05:33N 51°27' E 000°21'0 0.0
2016-Jul-21 04:33N 51°27' E 000°21'0 0.0
2016-Jul-21 03:33N 51°27' E 000°21'0 0.0
2016-Jul-21 02:33N 51°27' E 000°21'0 0.0
2016-Jul-21 01:34N 51°27' E 000°21'0 0.0
2016-Jul-21 00:33N 51°27' E 000°21'0 0.0
2016-Jul-20 23:33N 51°27' E 000°21'0 0.0
2016-Jul-20 22:33N 51°27' E 000°21'0 0.0
2016-Jul-20 21:34N 51°27' E 000°21'0 0.0
2016-Jul-20 20:34N 51°27' E 000°21'0 0.0
2016-Jul-20 19:34N 51°27' E 000°21'0 0.0
2016-Jul-20 18:34N 51°27' E 000°21'0 0.0
2016-Jul-20 17:34N 51°27' E 000°21'0 0.0
2016-Jul-20 16:34N 51°27' E 000°21'0 0.0
2016-Jul-20 15:34N 51°27' E 000°21'0 0.0
2016-Jul-20 14:34N 51°27' E 000°21'0 0.0
2016-Jul-20 13:34N 51°27' E 000°21'0 0.0
2016-Jul-20 12:34N 51°27' E 000°21'0 0.0
2016-Jul-20 11:34N 51°27' E 000°21'0 0.0
2016-Jul-20 10:34N 51°27' E 000°21'0 0.0
2016-Jul-20 09:34N 51°27' E 000°21'0 0.1
2016-Jul-20 08:34N 51°27' E 000°21'2 2.1
2016-Jul-20 07:34N 51°27' E 000°24'7 6.6
2016-Jul-20 06:34N 51°30' E 000°33'9 8.7
2016-Jul-20 05:33N 51°30' E 000°47'8 7.4
2016-Jul-20 04:32N 51°31' E 000°59'0 0.0
2016-Jul-20 03:32N 51°31' E 000°60'0 0.0
2016-Jul-20 02:32N 51°31' E 000°60'0 0.1
2016-Jul-20 01:32N 51°31' E 000°59'0 0.1
2016-Jul-20 00:32N 51°31' E 000°59'0 0.0
2016-Jul-19 23:32N 51°31' E 000°59'0 0.0
2016-Jul-19 22:29N 51°31' E 000°59'0 0.0
2016-Jul-19 21:32N 51°31' E 000°59'0 0.0
2016-Jul-19 20:32N 51°31' E 000°59'0 0.0
2016-Jul-19 19:32N 51°31' E 000°59'0 0.1
2016-Jul-19 18:32N 51°31' E 000°60'0 0.0
2016-Jul-19 17:32N 51°31' E 000°60'4 3.7
2016-Jul-19 16:33N 51°33' E 001°04'9 8.6
2016-Jul-19 15:33N 51°38' E 001°15'8 8.3
2016-Jul-19 14:34N 51°44' E 001°24'8 8.0
2016-Jul-19 13:34N 51°49' E 001°34'9 8.9
2016-Jul-19 12:33N 51°50' E 001°49'9 9.4
2016-Jul-19 11:33N 51°53' E 002°03'10 9.7
2016-Jul-19 10:34N 51°51' E 002°19'1010.0
2016-Jul-19 09:34N 51°45' E 002°31'10 9.6
2016-Jul-19 08:34N 51°45' E 002°47'1211.0
2016-Jul-19 07:29N 51°47' E 003°06'12 3.9
2016-Jul-19 04:23N 51°49' E 003°25'0 0.0
2016-Jul-19 03:23N 51°49' E 003°25'0 0.0
2016-Jul-19 02:29N 51°49' E 003°25'0 0.0
2016-Jul-19 01:32N 51°49' E 003°25'0 0.0
2016-Jul-19 00:29N 51°49' E 003°25'0 0.0
2016-Jul-18 23:29N 51°49' E 003°25'0 0.1
2016-Jul-18 22:29N 51°49' E 003°25'0 0.0
2016-Jul-18 21:19N 51°49' E 003°25'0 0.0
2016-Jul-18 20:07N 51°49' E 003°25'0 0.0
2016-Jul-18 18:19N 51°49' E 003°25'0 0.0
2016-Jul-18 17:31N 51°49' E 003°25'0 0.1
2016-Jul-18 16:28N 51°49' E 003°25'0 0.0
2016-Jul-18 15:25N 51°49' E 003°25'0 0.0
2016-Jul-18 14:28N 51°49' E 003°25'0 0.0
2016-Jul-18 13:31N 51°49' E 003°25'0 0.0
2016-Jul-18 12:31N 51°49' E 003°25'0 0.0
2016-Jul-18 11:22N 51°49' E 003°25'0 0.1
2016-Jul-18 10:28N 51°49' E 003°25'0 0.0
2016-Jul-18 09:25N 51°49' E 003°25'0 0.0
2016-Jul-18 08:31N 51°49' E 003°25'0 0.0
2016-Jul-18 07:31N 51°49' E 003°25'0 0.0
2016-Jul-18 06:19N 51°49' E 003°25'0 0.0
2016-Jul-18 04:28N 51°49' E 003°25'0 0.0
2016-Jul-18 01:31N 51°49' E 003°25'0 0.0
2016-Jul-17 22:25N 51°49' E 003°25'0 0.1
2016-Jul-17 20:31N 51°49' E 003°25'0 0.0
2016-Jul-17 18:28N 51°49' E 003°25'0 0.0
2016-Jul-16 21:18N 51°49' E 003°25'0 0.0
2016-Jul-16 20:30N 51°49' E 003°25'0 0.1
2016-Jul-16 19:33N 51°49' E 003°25'0 0.0
2016-Jul-16 18:06N 51°49' E 003°25'0 0.0
2016-Jul-16 17:09N 51°49' E 003°25'0 0.0
2016-Jul-16 16:30N 51°49' E 003°25'0 0.1
2016-Jul-16 15:27N 51°49' E 003°25'0 0.0
2016-Jul-16 13:30N 51°49' E 003°25'0 0.0
2016-Jul-16 06:30N 51°49' E 003°25'0 0.0
2016-Jul-15 18:23N 51°49' E 003°25'0 0.0
2016-Jul-15 17:23N 51°49' E 003°25'0 0.0
2016-Jul-15 16:08N 51°49' E 003°25'0 0.0
2016-Jul-15 11:14N 51°49' E 003°25'0 0.0
2016-Jul-15 10:29N 51°49' E 003°25'0 0.0
2016-Jul-15 09:26N 51°49' E 003°25'0 0.0
2016-Jul-15 08:32N 51°49' E 003°25'0 0.1
2016-Jul-15 07:32N 51°49' E 003°25'0 0.1
2016-Jul-15 06:08N 51°49' E 003°25'0 0.0
2016-Jul-15 05:29N 51°49' E 003°25'0 0.0
2016-Jul-15 03:23N 51°49' E 003°25'0 0.0
2016-Jul-15 00:14N 51°49' E 003°25'0 0.0
2016-Jul-14 23:23N 51°49' E 003°25'0 0.0
2016-Jul-14 22:23N 51°49' E 003°25'0 0.0
2016-Jul-14 21:29N 51°49' E 003°25'  

Dump ship's entire track history